sensor_id;sensor_type;location;lat;lon;timestamp;P1;durP1;ratioP1;P2;durP2;ratioP2
40867;SDS011;26586;50.708;22.412;2022-12-29T00:01:53;6.72;;;4.75;;
40867;SDS011;26586;50.708;22.412;2022-12-29T00:04:20;8.98;;;4.85;;
40867;SDS011;26586;50.708;22.412;2022-12-29T00:06:47;9.63;;;5.25;;
40867;SDS011;26586;50.708;22.412;2022-12-29T00:09:14;7.95;;;5.40;;
40867;SDS011;26586;50.708;22.412;2022-12-29T00:11:42;8.93;;;5.60;;
40867;SDS011;26586;50.708;22.412;2022-12-29T00:14:08;6.25;;;4.35;;
40867;SDS011;26586;50.708;22.412;2022-12-29T00:16:54;6.25;;;4.45;;
40867;SDS011;26586;50.708;22.412;2022-12-29T00:19:20;8.00;;;4.93;;
40867;SDS011;26586;50.708;22.412;2022-12-29T00:22:05;8.05;;;4.88;;
40867;SDS011;26586;50.708;22.412;2022-12-29T00:24:49;9.32;;;5.05;;
40867;SDS011;26586;50.708;22.412;2022-12-29T00:27:31;9.77;;;5.57;;
40867;SDS011;26586;50.708;22.412;2022-12-29T00:30:20;10.30;;;5.50;;
40867;SDS011;26586;50.708;22.412;2022-12-29T00:33:09;9.57;;;5.40;;
40867;SDS011;26586;50.708;22.412;2022-12-29T00:38:34;5.90;;;4.18;;
40867;SDS011;26586;50.708;22.412;2022-12-29T00:41:20;9.93;;;4.75;;
40867;SDS011;26586;50.708;22.412;2022-12-29T00:44:05;8.93;;;4.75;;
40867;SDS011;26586;50.708;22.412;2022-12-29T00:46:50;8.95;;;4.18;;
40867;SDS011;26586;50.708;22.412;2022-12-29T00:49:16;5.88;;;3.60;;
40867;SDS011;26586;50.708;22.412;2022-12-29T00:54:30;6.97;;;4.20;;
40867;SDS011;26586;50.708;22.412;2022-12-29T00:56:57;7.78;;;4.75;;
40867;SDS011;26586;50.708;22.412;2022-12-29T00:59:24;7.72;;;4.15;;
40867;SDS011;26586;50.708;22.412;2022-12-29T01:01:51;6.60;;;4.30;;
40867;SDS011;26586;50.708;22.412;2022-12-29T01:04:19;8.07;;;3.63;;
40867;SDS011;26586;50.708;22.412;2022-12-29T01:06:46;6.60;;;3.63;;
40867;SDS011;26586;50.708;22.412;2022-12-29T01:09:13;7.27;;;4.03;;
40867;SDS011;26586;50.708;22.412;2022-12-29T01:11:58;6.60;;;3.10;;
40867;SDS011;26586;50.708;22.412;2022-12-29T01:14:24;7.33;;;3.20;;
40867;SDS011;26586;50.708;22.412;2022-12-29T01:16:51;5.82;;;3.45;;
40867;SDS011;26586;50.708;22.412;2022-12-29T01:19:18;7.90;;;3.90;;
40867;SDS011;26586;50.708;22.412;2022-12-29T01:21:45;6.03;;;3.30;;
40867;SDS011;26586;50.708;22.412;2022-12-29T01:24:13;6.70;;;3.17;;
40867;SDS011;26586;50.708;22.412;2022-12-29T01:26:40;7.03;;;3.47;;
40867;SDS011;26586;50.708;22.412;2022-12-29T01:29:07;9.07;;;3.92;;
40867;SDS011;26586;50.708;22.412;2022-12-29T01:31:33;6.78;;;3.58;;
40867;SDS011;26586;50.708;22.412;2022-12-29T01:34:00;5.78;;;3.13;;
40867;SDS011;26586;50.708;22.412;2022-12-29T01:36:27;4.95;;;3.05;;
40867;SDS011;26586;50.708;22.412;2022-12-29T01:38:53;4.43;;;2.80;;
40867;SDS011;26586;50.708;22.412;2022-12-29T01:41:19;6.65;;;3.88;;
40867;SDS011;26586;50.708;22.412;2022-12-29T01:43:47;5.55;;;3.17;;
40867;SDS011;26586;50.708;22.412;2022-12-29T01:46:20;5.50;;;3.17;;
40867;SDS011;26586;50.708;22.412;2022-12-29T01:48:50;5.00;;;3.05;;
40867;SDS011;26586;50.708;22.412;2022-12-29T01:51:20;5.43;;;3.20;;
40867;SDS011;26586;50.708;22.412;2022-12-29T01:53:49;6.80;;;3.50;;
40867;SDS011;26586;50.708;22.412;2022-12-29T01:56:16;4.15;;;2.65;;
40867;SDS011;26586;50.708;22.412;2022-12-29T01:58:45;6.22;;;2.80;;
40867;SDS011;26586;50.708;22.412;2022-12-29T02:01:14;5.03;;;2.83;;
40867;SDS011;26586;50.708;22.412;2022-12-29T02:03:44;4.38;;;2.80;;
40867;SDS011;26586;50.708;22.412;2022-12-29T02:06:45;4.78;;;2.72;;
40867;SDS011;26586;50.708;22.412;2022-12-29T02:11:33;5.63;;;3.08;;
40867;SDS011;26586;50.708;22.412;2022-12-29T02:14:01;4.40;;;2.50;;
40867;SDS011;26586;50.708;22.412;2022-12-29T02:19:22;4.38;;;3.20;;
40867;SDS011;26586;50.708;22.412;2022-12-29T02:30:25;4.57;;;2.70;;
40867;SDS011;26586;50.708;22.412;2022-12-29T02:33:21;4.65;;;2.65;;
40867;SDS011;26586;50.708;22.412;2022-12-29T02:41:23;5.25;;;2.72;;
40867;SDS011;26586;50.708;22.412;2022-12-29T02:44:07;6.95;;;2.90;;
40867;SDS011;26586;50.708;22.412;2022-12-29T02:46:59;4.40;;;2.40;;
40867;SDS011;26586;50.708;22.412;2022-12-29T02:49:40;5.80;;;2.83;;
40867;SDS011;26586;50.708;22.412;2022-12-29T02:52:30;6.57;;;3.15;;
40867;SDS011;26586;50.708;22.412;2022-12-29T02:55:18;5.75;;;3.03;;
40867;SDS011;26586;50.708;22.412;2022-12-29T02:57:45;3.88;;;2.10;;
40867;SDS011;26586;50.708;22.412;2022-12-29T03:00:12;4.82;;;2.42;;
40867;SDS011;26586;50.708;22.412;2022-12-29T03:02:46;4.43;;;2.33;;
40867;SDS011;26586;50.708;22.412;2022-12-29T03:08:11;4.82;;;2.60;;
40867;SDS011;26586;50.708;22.412;2022-12-29T03:11:02;5.40;;;2.38;;
40867;SDS011;26586;50.708;22.412;2022-12-29T03:13:54;6.78;;;3.28;;
40867;SDS011;26586;50.708;22.412;2022-12-29T03:16:47;3.65;;;2.15;;
40867;SDS011;26586;50.708;22.412;2022-12-29T03:19:31;4.43;;;2.30;;
40867;SDS011;26586;50.708;22.412;2022-12-29T03:22:01;5.30;;;2.00;;
40867;SDS011;26586;50.708;22.412;2022-12-29T03:24:53;2.97;;;1.95;;
40867;SDS011;26586;50.708;22.412;2022-12-29T03:27:24;4.78;;;1.92;;
40867;SDS011;26586;50.708;22.412;2022-12-29T03:29:55;5.40;;;2.17;;
40867;SDS011;26586;50.708;22.412;2022-12-29T03:32:27;3.58;;;1.95;;
40867;SDS011;26586;50.708;22.412;2022-12-29T03:34:57;4.72;;;1.92;;
40867;SDS011;26586;50.708;22.412;2022-12-29T03:37:26;4.50;;;1.98;;
40867;SDS011;26586;50.708;22.412;2022-12-29T03:39:58;5.22;;;2.40;;
40867;SDS011;26586;50.708;22.412;2022-12-29T03:42:25;4.05;;;2.03;;
40867;SDS011;26586;50.708;22.412;2022-12-29T03:44:56;3.72;;;2.20;;
40867;SDS011;26586;50.708;22.412;2022-12-29T03:47:22;4.10;;;2.08;;
40867;SDS011;26586;50.708;22.412;2022-12-29T03:49:50;4.38;;;2.40;;
40867;SDS011;26586;50.708;22.412;2022-12-29T03:52:16;3.60;;;1.90;;
40867;SDS011;26586;50.708;22.412;2022-12-29T03:54:43;4.75;;;2.22;;
40867;SDS011;26586;50.708;22.412;2022-12-29T03:57:10;2.58;;;1.80;;
40867;SDS011;26586;50.708;22.412;2022-12-29T04:02:03;2.97;;;1.67;;
40867;SDS011;26586;50.708;22.412;2022-12-29T04:04:29;2.95;;;2.10;;
40867;SDS011;26586;50.708;22.412;2022-12-29T04:06:55;5.93;;;2.13;;
40867;SDS011;26586;50.708;22.412;2022-12-29T04:09:21;3.08;;;2.08;;
40867;SDS011;26586;50.708;22.412;2022-12-29T04:11:47;2.63;;;1.60;;
40867;SDS011;26586;50.708;22.412;2022-12-29T04:14:14;4.20;;;2.30;;
40867;SDS011;26586;50.708;22.412;2022-12-29T04:16:40;3.28;;;1.77;;
40867;SDS011;26586;50.708;22.412;2022-12-29T04:19:06;3.80;;;1.77;;
40867;SDS011;26586;50.708;22.412;2022-12-29T04:21:33;3.40;;;1.63;;
40867;SDS011;26586;50.708;22.412;2022-12-29T04:23:59;3.92;;;1.90;;
40867;SDS011;26586;50.708;22.412;2022-12-29T04:26:25;3.03;;;1.70;;
40867;SDS011;26586;50.708;22.412;2022-12-29T04:28:52;2.93;;;1.87;;
40867;SDS011;26586;50.708;22.412;2022-12-29T04:31:18;3.10;;;1.60;;
40867;SDS011;26586;50.708;22.412;2022-12-29T04:33:44;1.73;;;1.40;;
40867;SDS011;26586;50.708;22.412;2022-12-29T04:36:10;3.25;;;1.73;;
40867;SDS011;26586;50.708;22.412;2022-12-29T04:38:36;3.93;;;1.67;;
40867;SDS011;26586;50.708;22.412;2022-12-29T04:41:03;2.55;;;1.40;;
40867;SDS011;26586;50.708;22.412;2022-12-29T04:43:29;3.65;;;1.80;;
40867;SDS011;26586;50.708;22.412;2022-12-29T04:45:56;2.55;;;1.95;;
40867;SDS011;26586;50.708;22.412;2022-12-29T04:48:22;4.57;;;2.33;;
40867;SDS011;26586;50.708;22.412;2022-12-29T04:50:48;2.60;;;1.58;;
40867;SDS011;26586;50.708;22.412;2022-12-29T04:53:15;5.47;;;2.15;;
40867;SDS011;26586;50.708;22.412;2022-12-29T04:58:08;2.60;;;1.65;;
40867;SDS011;26586;50.708;22.412;2022-12-29T05:00:34;2.47;;;1.60;;
40867;SDS011;26586;50.708;22.412;2022-12-29T05:03:01;2.85;;;1.42;;
40867;SDS011;26586;50.708;22.412;2022-12-29T05:05:27;4.23;;;1.50;;
40867;SDS011;26586;50.708;22.412;2022-12-29T05:07:54;2.80;;;1.40;;
40867;SDS011;26586;50.708;22.412;2022-12-29T05:10:20;4.68;;;2.00;;
40867;SDS011;26586;50.708;22.412;2022-12-29T05:12:46;3.67;;;1.67;;
40867;SDS011;26586;50.708;22.412;2022-12-29T05:15:13;2.70;;;1.50;;
40867;SDS011;26586;50.708;22.412;2022-12-29T05:17:39;2.90;;;1.73;;
40867;SDS011;26586;50.708;22.412;2022-12-29T05:20:05;3.05;;;1.65;;
40867;SDS011;26586;50.708;22.412;2022-12-29T05:22:32;3.50;;;2.05;;
40867;SDS011;26586;50.708;22.412;2022-12-29T05:24:58;3.97;;;1.80;;
40867;SDS011;26586;50.708;22.412;2022-12-29T05:27:25;3.45;;;1.67;;
40867;SDS011;26586;50.708;22.412;2022-12-29T05:29:51;3.13;;;1.70;;
40867;SDS011;26586;50.708;22.412;2022-12-29T05:32:17;3.77;;;2.20;;
40867;SDS011;26586;50.708;22.412;2022-12-29T05:34:43;4.05;;;2.25;;
40867;SDS011;26586;50.708;22.412;2022-12-29T05:37:10;3.10;;;2.03;;
40867;SDS011;26586;50.708;22.412;2022-12-29T05:39:36;3.10;;;1.90;;
40867;SDS011;26586;50.708;22.412;2022-12-29T05:42:02;5.35;;;2.25;;
40867;SDS011;26586;50.708;22.412;2022-12-29T05:44:28;3.88;;;1.88;;
40867;SDS011;26586;50.708;22.412;2022-12-29T05:46:55;4.00;;;1.80;;
40867;SDS011;26586;50.708;22.412;2022-12-29T05:49:21;3.92;;;2.17;;
40867;SDS011;26586;50.708;22.412;2022-12-29T05:51:47;20.47;;;13.67;;
40867;SDS011;26586;50.708;22.412;2022-12-29T05:54:13;30.77;;;17.05;;
40867;SDS011;26586;50.708;22.412;2022-12-29T05:56:40;26.52;;;23.80;;
40867;SDS011;26586;50.708;22.412;2022-12-29T05:59:06;20.65;;;13.88;;
40867;SDS011;26586;50.708;22.412;2022-12-29T06:01:32;22.58;;;19.05;;
40867;SDS011;26586;50.708;22.412;2022-12-29T06:03:59;221.00;;;100.10;;
40867;SDS011;26586;50.708;22.412;2022-12-29T06:06:26;22.45;;;17.80;;
40867;SDS011;26586;50.708;22.412;2022-12-29T06:08:52;57.53;;;34.08;;
40867;SDS011;26586;50.708;22.412;2022-12-29T06:11:18;41.90;;;32.22;;
40867;SDS011;26586;50.708;22.412;2022-12-29T06:13:44;61.90;;;43.08;;
40867;SDS011;26586;50.708;22.412;2022-12-29T06:16:11;26.83;;;22.53;;
40867;SDS011;26586;50.708;22.412;2022-12-29T06:18:37;6.43;;;4.00;;
40867;SDS011;26586;50.708;22.412;2022-12-29T06:21:04;332.20;;;152.43;;
40867;SDS011;26586;50.708;22.412;2022-12-29T06:23:31;261.67;;;150.75;;
40867;SDS011;26586;50.708;22.412;2022-12-29T06:25:57;86.73;;;55.53;;
40867;SDS011;26586;50.708;22.412;2022-12-29T06:28:23;54.53;;;29.42;;
40867;SDS011;26586;50.708;22.412;2022-12-29T06:30:50;48.83;;;28.00;;
40867;SDS011;26586;50.708;22.412;2022-12-29T06:33:16;91.43;;;43.65;;
40867;SDS011;26586;50.708;22.412;2022-12-29T06:35:42;17.15;;;8.82;;
40867;SDS011;26586;50.708;22.412;2022-12-29T06:38:08;70.20;;;33.63;;
40867;SDS011;26586;50.708;22.412;2022-12-29T06:40:35;8.93;;;5.93;;
40867;SDS011;26586;50.708;22.412;2022-12-29T06:43:01;41.78;;;21.60;;
40867;SDS011;26586;50.708;22.412;2022-12-29T06:45:27;10.47;;;5.23;;
40867;SDS011;26586;50.708;22.412;2022-12-29T06:47:53;10.63;;;5.95;;
40867;SDS011;26586;50.708;22.412;2022-12-29T06:50:20;32.07;;;16.87;;
40867;SDS011;26586;50.708;22.412;2022-12-29T06:52:46;17.05;;;8.40;;
40867;SDS011;26586;50.708;22.412;2022-12-29T06:55:12;52.45;;;22.27;;
40867;SDS011;26586;50.708;22.412;2022-12-29T06:57:38;58.17;;;18.02;;
40867;SDS011;26586;50.708;22.412;2022-12-29T07:00:05;49.17;;;14.23;;
40867;SDS011;26586;50.708;22.412;2022-12-29T07:02:31;81.75;;;22.17;;
40867;SDS011;26586;50.708;22.412;2022-12-29T07:04:58;59.07;;;19.07;;
40867;SDS011;26586;50.708;22.412;2022-12-29T07:07:24;45.50;;;13.82;;
40867;SDS011;26586;50.708;22.412;2022-12-29T07:09:50;24.67;;;9.33;;
40867;SDS011;26586;50.708;22.412;2022-12-29T07:12:16;17.90;;;6.82;;
40867;SDS011;26586;50.708;22.412;2022-12-29T07:14:42;21.83;;;9.83;;
40867;SDS011;26586;50.708;22.412;2022-12-29T07:17:09;7.63;;;4.28;;
40867;SDS011;26586;50.708;22.412;2022-12-29T07:19:35;7.23;;;4.47;;
40867;SDS011;26586;50.708;22.412;2022-12-29T07:22:01;3.92;;;2.05;;
40867;SDS011;26586;50.708;22.412;2022-12-29T07:24:28;4.25;;;2.45;;
40867;SDS011;26586;50.708;22.412;2022-12-29T07:26:55;4.18;;;2.17;;
40867;SDS011;26586;50.708;22.412;2022-12-29T07:29:21;6.93;;;3.13;;
40867;SDS011;26586;50.708;22.412;2022-12-29T07:31:48;5.45;;;2.78;;
40867;SDS011;26586;50.708;22.412;2022-12-29T07:34:14;9.80;;;5.77;;
40867;SDS011;26586;50.708;22.412;2022-12-29T07:36:40;5.15;;;3.65;;
40867;SDS011;26586;50.708;22.412;2022-12-29T07:39:06;5.88;;;3.40;;
40867;SDS011;26586;50.708;22.412;2022-12-29T07:41:32;5.60;;;3.60;;
40867;SDS011;26586;50.708;22.412;2022-12-29T07:46:26;4.47;;;2.10;;
40867;SDS011;26586;50.708;22.412;2022-12-29T07:48:52;4.82;;;2.72;;
40867;SDS011;26586;50.708;22.412;2022-12-29T07:51:18;7.05;;;3.10;;
40867;SDS011;26586;50.708;22.412;2022-12-29T07:53:45;7.78;;;3.30;;
40867;SDS011;26586;50.708;22.412;2022-12-29T07:56:11;4.30;;;2.17;;
40867;SDS011;26586;50.708;22.412;2022-12-29T07:58:37;7.35;;;4.07;;
40867;SDS011;26586;50.708;22.412;2022-12-29T08:01:03;6.03;;;3.22;;
40867;SDS011;26586;50.708;22.412;2022-12-29T08:03:31;7.85;;;3.30;;
40867;SDS011;26586;50.708;22.412;2022-12-29T08:05:57;5.10;;;2.95;;
40867;SDS011;26586;50.708;22.412;2022-12-29T08:08:23;3.30;;;2.30;;
40867;SDS011;26586;50.708;22.412;2022-12-29T08:10:49;4.38;;;2.70;;
40867;SDS011;26586;50.708;22.412;2022-12-29T08:13:15;4.97;;;2.50;;
40867;SDS011;26586;50.708;22.412;2022-12-29T08:15:41;5.70;;;3.55;;
40867;SDS011;26586;50.708;22.412;2022-12-29T08:18:08;4.38;;;2.40;;
40867;SDS011;26586;50.708;22.412;2022-12-29T08:20:34;6.13;;;3.28;;
40867;SDS011;26586;50.708;22.412;2022-12-29T08:23:00;5.80;;;3.53;;
40867;SDS011;26586;50.708;22.412;2022-12-29T08:25:26;6.15;;;3.92;;
40867;SDS011;26586;50.708;22.412;2022-12-29T08:27:53;6.80;;;4.10;;
40867;SDS011;26586;50.708;22.412;2022-12-29T08:30:19;7.13;;;5.25;;
40867;SDS011;26586;50.708;22.412;2022-12-29T08:32:45;6.03;;;3.03;;
40867;SDS011;26586;50.708;22.412;2022-12-29T08:35:11;6.20;;;3.80;;
40867;SDS011;26586;50.708;22.412;2022-12-29T08:37:38;9.15;;;4.72;;
40867;SDS011;26586;50.708;22.412;2022-12-29T08:40:04;5.40;;;3.85;;
40867;SDS011;26586;50.708;22.412;2022-12-29T08:44:58;11.25;;;7.05;;
40867;SDS011;26586;50.708;22.412;2022-12-29T08:47:25;6.53;;;4.00;;
40867;SDS011;26586;50.708;22.412;2022-12-29T08:49:52;4.75;;;2.40;;
40867;SDS011;26586;50.708;22.412;2022-12-29T08:52:18;8.52;;;3.17;;
40867;SDS011;26586;50.708;22.412;2022-12-29T08:54:45;5.90;;;3.50;;
40867;SDS011;26586;50.708;22.412;2022-12-29T08:57:11;5.70;;;3.10;;
40867;SDS011;26586;50.708;22.412;2022-12-29T08:59:37;13.50;;;5.00;;
40867;SDS011;26586;50.708;22.412;2022-12-29T09:02:03;6.30;;;3.73;;
40867;SDS011;26586;50.708;22.412;2022-12-29T09:04:29;6.45;;;3.80;;
40867;SDS011;26586;50.708;22.412;2022-12-29T09:06:56;8.50;;;4.23;;
40867;SDS011;26586;50.708;22.412;2022-12-29T09:09:22;4.28;;;2.33;;
40867;SDS011;26586;50.708;22.412;2022-12-29T09:11:48;3.87;;;2.30;;
40867;SDS011;26586;50.708;22.412;2022-12-29T09:14:14;4.68;;;3.10;;
40867;SDS011;26586;50.708;22.412;2022-12-29T09:16:41;4.85;;;2.58;;
40867;SDS011;26586;50.708;22.412;2022-12-29T09:19:25;10.05;;;5.57;;
40867;SDS011;26586;50.708;22.412;2022-12-29T09:21:51;7.77;;;4.90;;
40867;SDS011;26586;50.708;22.412;2022-12-29T09:24:18;5.60;;;3.20;;
40867;SDS011;26586;50.708;22.412;2022-12-29T09:26:44;3.73;;;2.60;;
40867;SDS011;26586;50.708;22.412;2022-12-29T09:29:10;8.38;;;4.20;;
40867;SDS011;26586;50.708;22.412;2022-12-29T09:31:36;4.83;;;3.43;;
40867;SDS011;26586;50.708;22.412;2022-12-29T09:34:02;11.30;;;4.35;;
40867;SDS011;26586;50.708;22.412;2022-12-29T09:36:29;11.53;;;5.37;;
40867;SDS011;26586;50.708;22.412;2022-12-29T09:38:55;16.80;;;9.85;;
40867;SDS011;26586;50.708;22.412;2022-12-29T09:41:25;19.63;;;10.77;;
40867;SDS011;26586;50.708;22.412;2022-12-29T09:46:42;10.32;;;6.13;;
40867;SDS011;26586;50.708;22.412;2022-12-29T09:52:08;9.27;;;5.65;;
40867;SDS011;26586;50.708;22.412;2022-12-29T09:54:56;10.55;;;6.85;;
40867;SDS011;26586;50.708;22.412;2022-12-29T09:57:46;11.90;;;6.15;;
40867;SDS011;26586;50.708;22.412;2022-12-29T10:00:22;7.97;;;4.47;;
40867;SDS011;26586;50.708;22.412;2022-12-29T10:03:19;12.00;;;6.47;;
40867;SDS011;26586;50.708;22.412;2022-12-29T10:08:37;9.75;;;5.82;;
40867;SDS011;26586;50.708;22.412;2022-12-29T10:14:58;21.90;;;7.65;;
40867;SDS011;26586;50.708;22.412;2022-12-29T10:22:04;6.25;;;3.58;;
40867;SDS011;26586;50.708;22.412;2022-12-29T10:24:53;8.60;;;3.45;;
40867;SDS011;26586;50.708;22.412;2022-12-29T10:27:22;8.93;;;4.80;;
40867;SDS011;26586;50.708;22.412;2022-12-29T10:32:24;10.15;;;4.18;;
40867;SDS011;26586;50.708;22.412;2022-12-29T10:34:58;9.18;;;3.33;;
40867;SDS011;26586;50.708;22.412;2022-12-29T10:43:01;26.08;;;10.65;;
40867;SDS011;26586;50.708;22.412;2022-12-29T10:48:05;9.70;;;4.32;;
40867;SDS011;26586;50.708;22.412;2022-12-29T10:50:37;8.73;;;3.63;;
40867;SDS011;26586;50.708;22.412;2022-12-29T10:53:08;10.48;;;3.97;;
40867;SDS011;26586;50.708;22.412;2022-12-29T10:55:44;6.97;;;4.18;;
40867;SDS011;26586;50.708;22.412;2022-12-29T11:00:39;12.27;;;5.60;;
40867;SDS011;26586;50.708;22.412;2022-12-29T11:05:46;5.68;;;3.78;;
40867;SDS011;26586;50.708;22.412;2022-12-29T11:08:35;9.45;;;5.15;;
40867;SDS011;26586;50.708;22.412;2022-12-29T11:11:05;7.72;;;4.55;;
40867;SDS011;26586;50.708;22.412;2022-12-29T11:13:34;10.43;;;5.20;;
40867;SDS011;26586;50.708;22.412;2022-12-29T11:16:12;6.80;;;4.38;;
40867;SDS011;26586;50.708;22.412;2022-12-29T11:18:38;7.13;;;4.38;;
40867;SDS011;26586;50.708;22.412;2022-12-29T11:24:00;7.55;;;5.22;;
40867;SDS011;26586;50.708;22.412;2022-12-29T11:26:31;4.53;;;2.40;;
40867;SDS011;26586;50.708;22.412;2022-12-29T11:29:11;6.38;;;3.88;;
40867;SDS011;26586;50.708;22.412;2022-12-29T11:31:57;6.87;;;3.20;;
40867;SDS011;26586;50.708;22.412;2022-12-29T11:34:31;6.10;;;3.13;;
40867;SDS011;26586;50.708;22.412;2022-12-29T11:37:00;7.00;;;2.95;;
40867;SDS011;26586;50.708;22.412;2022-12-29T11:39:32;4.43;;;2.67;;
40867;SDS011;26586;50.708;22.412;2022-12-29T11:42:02;7.47;;;3.15;;
40867;SDS011;26586;50.708;22.412;2022-12-29T11:44:31;10.45;;;2.80;;
40867;SDS011;26586;50.708;22.412;2022-12-29T11:47:03;8.63;;;3.65;;
40867;SDS011;26586;50.708;22.412;2022-12-29T11:49:32;5.97;;;3.38;;
40867;SDS011;26586;50.708;22.412;2022-12-29T11:51:58;4.45;;;2.33;;
40867;SDS011;26586;50.708;22.412;2022-12-29T11:54:27;10.38;;;5.20;;
40867;SDS011;26586;50.708;22.412;2022-12-29T11:56:55;10.00;;;5.55;;
40867;SDS011;26586;50.708;22.412;2022-12-29T12:00:13;9.95;;;4.68;;
40867;SDS011;26586;50.708;22.412;2022-12-29T12:02:35;8.45;;;4.80;;
40867;SDS011;26586;50.708;22.412;2022-12-29T12:05:05;7.57;;;4.22;;
40867;SDS011;26586;50.708;22.412;2022-12-29T12:08:01;8.48;;;3.65;;
40867;SDS011;26586;50.708;22.412;2022-12-29T12:10:38;5.82;;;3.13;;
40867;SDS011;26586;50.708;22.412;2022-12-29T12:13:20;4.93;;;3.17;;
40867;SDS011;26586;50.708;22.412;2022-12-29T12:16:17;5.68;;;3.67;;
40867;SDS011;26586;50.708;22.412;2022-12-29T12:18:52;5.13;;;3.40;;
40867;SDS011;26586;50.708;22.412;2022-12-29T12:21:30;8.27;;;3.80;;
40867;SDS011;26586;50.708;22.412;2022-12-29T12:38:00;8.18;;;5.05;;
40867;SDS011;26586;50.708;22.412;2022-12-29T12:43:44;6.60;;;3.35;;
40867;SDS011;26586;50.708;22.412;2022-12-29T13:00:20;6.03;;;3.45;;
40867;SDS011;26586;50.708;22.412;2022-12-29T13:05:47;7.22;;;3.80;;
40867;SDS011;26586;50.708;22.412;2022-12-29T13:25:32;8.95;;;5.45;;
40867;SDS011;26586;50.708;22.412;2022-12-29T13:31:00;6.85;;;3.80;;
40867;SDS011;26586;50.708;22.412;2022-12-29T13:33:34;7.25;;;4.65;;
40867;SDS011;26586;50.708;22.412;2022-12-29T13:36:26;18.77;;;7.95;;
40867;SDS011;26586;50.708;22.412;2022-12-29T13:39:04;9.85;;;6.15;;
40867;SDS011;26586;50.708;22.412;2022-12-29T13:41:39;15.23;;;7.15;;
40867;SDS011;26586;50.708;22.412;2022-12-29T13:44:18;17.95;;;8.45;;
40867;SDS011;26586;50.708;22.412;2022-12-29T13:46:49;14.57;;;5.85;;
40867;SDS011;26586;50.708;22.412;2022-12-29T13:49:17;11.38;;;6.68;;
40867;SDS011;26586;50.708;22.412;2022-12-29T13:51:49;14.73;;;8.43;;
40867;SDS011;26586;50.708;22.412;2022-12-29T13:57:13;8.07;;;5.38;;
40867;SDS011;26586;50.708;22.412;2022-12-29T14:00:03;8.43;;;4.72;;
40867;SDS011;26586;50.708;22.412;2022-12-29T14:03:01;13.38;;;7.68;;
40867;SDS011;26586;50.708;22.412;2022-12-29T14:06:04;18.27;;;10.88;;
40867;SDS011;26586;50.708;22.412;2022-12-29T14:08:32;11.25;;;7.25;;
40867;SDS011;26586;50.708;22.412;2022-12-29T14:11:04;9.57;;;5.78;;
40867;SDS011;26586;50.708;22.412;2022-12-29T14:13:39;7.70;;;4.45;;
40867;SDS011;26586;50.708;22.412;2022-12-29T14:16:10;9.05;;;5.25;;
40867;SDS011;26586;50.708;22.412;2022-12-29T14:19:03;11.68;;;6.60;;
40867;SDS011;26586;50.708;22.412;2022-12-29T14:21:39;10.13;;;5.63;;
40867;SDS011;26586;50.708;22.412;2022-12-29T14:26:58;9.48;;;4.95;;
40867;SDS011;26586;50.708;22.412;2022-12-29T14:31:51;10.90;;;7.65;;
40867;SDS011;26586;50.708;22.412;2022-12-29T14:37:00;16.35;;;8.55;;
40867;SDS011;26586;50.708;22.412;2022-12-29T14:42:04;12.73;;;7.40;;
40867;SDS011;26586;50.708;22.412;2022-12-29T14:49:56;21.90;;;13.88;;
40867;SDS011;26586;50.708;22.412;2022-12-29T14:52:29;21.10;;;12.60;;
40867;SDS011;26586;50.708;22.412;2022-12-29T14:54:59;18.55;;;13.75;;
40867;SDS011;26586;50.708;22.412;2022-12-29T14:57:49;21.65;;;12.80;;
40867;SDS011;26586;50.708;22.412;2022-12-29T15:00:35;11.00;;;9.02;;
40867;SDS011;26586;50.708;22.412;2022-12-29T15:03:04;23.80;;;14.75;;
40867;SDS011;26586;50.708;22.412;2022-12-29T15:05:44;17.00;;;11.07;;
40867;SDS011;26586;50.708;22.412;2022-12-29T15:08:32;13.43;;;8.85;;
40867;SDS011;26586;50.708;22.412;2022-12-29T15:11:15;17.20;;;10.10;;
40867;SDS011;26586;50.708;22.412;2022-12-29T15:13:45;16.25;;;9.05;;
40867;SDS011;26586;50.708;22.412;2022-12-29T15:18:56;12.75;;;6.95;;
40867;SDS011;26586;50.708;22.412;2022-12-29T15:21:30;16.95;;;10.15;;
40867;SDS011;26586;50.708;22.412;2022-12-29T15:23:59;9.63;;;6.75;;
40867;SDS011;26586;50.708;22.412;2022-12-29T15:26:42;14.43;;;9.50;;
40867;SDS011;26586;50.708;22.412;2022-12-29T15:32:00;26.83;;;14.40;;
40867;SDS011;26586;50.708;22.412;2022-12-29T15:34:37;23.80;;;13.00;;
40867;SDS011;26586;50.708;22.412;2022-12-29T15:37:07;18.13;;;9.73;;
40867;SDS011;26586;50.708;22.412;2022-12-29T15:39:34;14.33;;;9.27;;
40867;SDS011;26586;50.708;22.412;2022-12-29T15:49:49;33.95;;;16.58;;
40867;SDS011;26586;50.708;22.412;2022-12-29T15:52:20;42.45;;;20.40;;
40867;SDS011;26586;50.708;22.412;2022-12-29T15:54:50;38.50;;;18.30;;
40867;SDS011;26586;50.708;22.412;2022-12-29T15:57:22;21.95;;;12.13;;
40867;SDS011;26586;50.708;22.412;2022-12-29T15:59:50;16.00;;;7.53;;
40867;SDS011;26586;50.708;22.412;2022-12-29T16:02:17;28.70;;;12.95;;
40867;SDS011;26586;50.708;22.412;2022-12-29T16:04:44;48.22;;;21.15;;
40867;SDS011;26586;50.708;22.412;2022-12-29T16:07:26;73.45;;;31.92;;
40867;SDS011;26586;50.708;22.412;2022-12-29T16:09:59;77.78;;;39.13;;
40867;SDS011;26586;50.708;22.412;2022-12-29T16:12:30;31.00;;;16.00;;
40867;SDS011;26586;50.708;22.412;2022-12-29T16:14:59;30.75;;;18.17;;
40867;SDS011;26586;50.708;22.412;2022-12-29T16:17:30;34.03;;;20.00;;
40867;SDS011;26586;50.708;22.412;2022-12-29T16:20:03;28.33;;;15.18;;
40867;SDS011;26586;50.708;22.412;2022-12-29T16:22:42;28.60;;;16.95;;
40867;SDS011;26586;50.708;22.412;2022-12-29T16:27:46;19.35;;;8.98;;
40867;SDS011;26586;50.708;22.412;2022-12-29T16:30:17;10.57;;;6.13;;
40867;SDS011;26586;50.708;22.412;2022-12-29T16:32:47;18.90;;;10.57;;
40867;SDS011;26586;50.708;22.412;2022-12-29T16:35:21;35.58;;;17.60;;
40867;SDS011;26586;50.708;22.412;2022-12-29T16:40:58;23.52;;;13.32;;
40867;SDS011;26586;50.708;22.412;2022-12-29T16:43:29;18.65;;;11.48;;
40867;SDS011;26586;50.708;22.412;2022-12-29T16:48:30;48.75;;;22.48;;
40867;SDS011;26586;50.708;22.412;2022-12-29T16:51:03;34.50;;;17.48;;
40867;SDS011;26586;50.708;22.412;2022-12-29T16:53:56;24.95;;;18.42;;
40867;SDS011;26586;50.708;22.412;2022-12-29T16:56:25;24.65;;;14.05;;
40867;SDS011;26586;50.708;22.412;2022-12-29T16:59:04;38.90;;;20.33;;
40867;SDS011;26586;50.708;22.412;2022-12-29T17:01:34;60.33;;;34.47;;
40867;SDS011;26586;50.708;22.412;2022-12-29T17:04:05;13.85;;;9.40;;
40867;SDS011;26586;50.708;22.412;2022-12-29T17:06:34;50.10;;;29.50;;
40867;SDS011;26586;50.708;22.412;2022-12-29T17:09:00;25.97;;;14.93;;
40867;SDS011;26586;50.708;22.412;2022-12-29T17:11:30;22.70;;;13.50;;
40867;SDS011;26586;50.708;22.412;2022-12-29T17:19:35;31.52;;;16.02;;
40867;SDS011;26586;50.708;22.412;2022-12-29T17:22:04;69.57;;;30.85;;
40867;SDS011;26586;50.708;22.412;2022-12-29T17:24:37;40.80;;;17.25;;
40867;SDS011;26586;50.708;22.412;2022-12-29T17:27:04;57.15;;;23.70;;
40867;SDS011;26586;50.708;22.412;2022-12-29T17:29:34;24.38;;;15.50;;
40867;SDS011;26586;50.708;22.412;2022-12-29T17:32:03;40.08;;;15.85;;
40867;SDS011;26586;50.708;22.412;2022-12-29T17:34:32;24.52;;;15.13;;
40867;SDS011;26586;50.708;22.412;2022-12-29T17:36:58;23.55;;;10.40;;
40867;SDS011;26586;50.708;22.412;2022-12-29T17:39:24;24.60;;;11.53;;
40867;SDS011;26586;50.708;22.412;2022-12-29T17:41:51;60.38;;;28.13;;